createdAt,value
2018-05-13T00:00:34.815Z,12.33
2018-05-13T00:01:44.825Z,12.37
2018-05-13T00:02:54.847Z,12.36
2018-05-13T00:04:04.863Z,12.37
2018-05-13T00:05:14.826Z,12.3
2018-05-13T00:06:25.024Z,12.3
2018-05-13T00:07:35.047Z,12.36
2018-05-13T00:08:45.059Z,12.36
2018-05-13T00:09:54.817Z,12.3
2018-05-13T00:11:04.561Z,12.21
2018-05-13T00:12:14.354Z,12.26
2018-05-13T00:13:23.839Z,12.25
2018-05-13T00:14:33.579Z,12.21
2018-05-13T00:15:43.332Z,12.26
2018-05-13T00:16:53.339Z,12.14
2018-05-13T00:18:03.348Z,12.18
2018-05-13T00:19:13.095Z,12.17
2018-05-13T00:20:23.110Z,12.17
2018-05-13T00:21:32.595Z,12.15
2018-05-13T00:22:42.355Z,12.11
2018-05-13T00:23:52.367Z,12.08
2018-05-13T00:25:02.117Z,12.12
2018-05-13T00:26:11.597Z,12.03
2018-05-13T00:27:21.353Z,11.99
2018-05-13T00:28:31.100Z,11.93
2018-05-13T00:29:40.574Z,11.89
2018-05-13T00:30:50.585Z,11.93
2018-05-13T00:32:00.333Z,11.89
2018-05-13T00:33:10.098Z,11.85
2018-05-13T00:34:19.852Z,11.93
2018-05-13T00:35:29.865Z,11.96
2018-05-13T00:36:39.338Z,11.88
2018-05-13T00:37:48.809Z,11.81
2018-05-13T00:38:58.837Z,11.95
2018-05-13T00:40:08.595Z,11.89
2018-05-13T00:41:18.713Z,11.88
2018-05-13T00:42:28.192Z,11.91
2018-05-13T00:43:38.194Z,11.93
2018-05-13T00:44:48.203Z,11.89
2018-05-13T00:45:57.944Z,11.93
2018-05-13T00:47:07.689Z,11.81
2018-05-13T00:48:17.701Z,11.86
2018-05-13T00:49:27.722Z,11.91
2018-05-13T00:50:37.587Z,11.83
2018-05-13T00:51:47.190Z,11.93
2018-05-13T00:52:56.943Z,11.95
2018-05-13T00:54:06.415Z,11.89
2018-05-13T00:55:15.896Z,11.93
2018-05-13T00:56:25.644Z,12
2018-05-13T00:57:35.724Z,12.02
2018-05-13T00:58:45.195Z,12.02
2018-05-13T00:59:54.936Z,12.02
2018-05-13T01:01:04.946Z,11.99
2018-05-13T01:02:14.701Z,12.08
2018-05-13T01:03:24.446Z,12.11
2018-05-13T01:04:34.458Z,12.11
2018-05-13T01:05:44.214Z,12.25
2018-05-13T01:06:54.220Z,12.18
2018-05-13T01:08:03.966Z,12.25
2018-05-13T01:09:13.727Z,12.29
2018-05-13T01:10:23.544Z,12.3
2018-05-13T01:11:33.560Z,12.29
2018-05-13T01:12:43.573Z,12.28
2018-05-13T01:13:53.318Z,12.26
2018-05-13T01:15:03.059Z,12.28
2018-05-13T01:16:13.069Z,12.3
2018-05-13T01:17:22.824Z,12.32
2018-05-13T01:18:32.913Z,12.26
2018-05-13T01:19:42.699Z,12.32
2018-05-13T01:20:52.442Z,12.28
2018-05-13T01:22:02.477Z,12.33
2018-05-13T01:23:12.489Z,12.29
2018-05-13T01:24:22.509Z,12.21
2018-05-13T01:25:32.520Z,12.15
2018-05-13T01:26:42.531Z,12.14
2018-05-13T01:27:52.550Z,12.21
2018-05-13T01:29:02.553Z,12.2
2018-05-13T01:30:12.300Z,12.18
2018-05-13T01:31:22.066Z,12.18
2018-05-13T01:32:32.079Z,12.21
2018-05-13T01:33:42.095Z,12.2
2018-05-13T01:34:51.925Z,12.21
2018-05-13T01:36:01.935Z,12.17
2018-05-13T01:37:11.164Z,12.15
2018-05-13T01:38:20.636Z,12.25
2018-05-13T01:39:30.708Z,12.15
2018-05-13T01:40:39.916Z,12.12
2018-05-13T01:41:49.716Z,12.29
2018-05-13T01:42:59.459Z,12.21
2018-05-13T01:44:08.937Z,12.15
2018-05-13T01:45:18.689Z,12.18
2018-05-13T01:46:28.441Z,12.14
2018-05-13T01:47:38.236Z,12.1
2018-05-13T01:48:47.980Z,11.96
2018-05-13T01:49:57.730Z,12.03
2018-05-13T01:51:07.205Z,11.96
2018-05-13T01:52:17.221Z,11.99
2018-05-13T01:53:26.972Z,11.89
2018-05-13T01:54:36.995Z,11.86
2018-05-13T01:55:47.012Z,11.86
2018-05-13T01:56:57.028Z,11.86
2018-05-13T01:58:06.854Z,11.88
2018-05-13T01:59:16.603Z,11.88
2018-05-13T02:00:26.618Z,11.85
2018-05-13T02:01:36.629Z,11.89
2018-05-13T02:02:46.891Z,11.88
2018-05-13T02:03:56.903Z,11.86
2018-05-13T02:05:06.645Z,11.85
2018-05-13T02:06:16.120Z,11.85
2018-05-13T02:07:25.869Z,11.83
2018-05-13T02:08:35.980Z,11.83
2018-05-13T02:09:46.001Z,11.88
2018-05-13T02:10:56.015Z,11.89
2018-05-13T02:12:06.025Z,11.8
2018-05-13T02:13:15.499Z,11.91
2018-05-13T02:14:25.256Z,11.93
2018-05-13T02:15:34.998Z,11.89
2018-05-13T02:16:45.030Z,11.81
2018-05-13T02:17:55.051Z,11.91
2018-05-13T02:19:04.797Z,11.91
2018-05-13T02:20:15.112Z,11.8
2018-05-13T02:21:24.857Z,11.74
2018-05-13T02:22:34.870Z,11.83
2018-05-13T02:23:44.614Z,11.76
2018-05-13T02:24:54.095Z,11.7
2018-05-13T02:26:04.116Z,11.65
2018-05-13T02:27:13.867Z,11.65
2018-05-13T02:28:23.354Z,11.6
2018-05-13T02:29:33.359Z,11.65
2018-05-13T02:30:43.104Z,11.56
2018-05-13T02:31:52.959Z,11.56
2018-05-13T02:33:02.186Z,11.58
2018-05-13T02:34:12.207Z,11.55
2018-05-13T02:35:22.220Z,11.45
2018-05-13T02:36:32.330Z,11.52
2018-05-13T02:37:42.153Z,11.45
2018-05-13T02:38:52.193Z,11.49
2018-05-13T02:40:01.403Z,11.48
2018-05-13T02:41:10.085Z,11.43
2018-05-13T02:42:19.620Z,11.41
2018-05-13T02:43:29.374Z,11.35
2018-05-13T02:44:39.497Z,11.38
2018-05-13T02:45:49.512Z,11.34
2018-05-13T02:46:59.531Z,11.25
2018-05-13T02:48:09.007Z,11.2
2018-05-13T02:49:18.486Z,11.27
2018-05-13T02:50:28.243Z,11.2
2018-05-13T02:51:38.362Z,11.16
2018-05-13T02:52:48.139Z,11.18
2018-05-13T02:53:58.173Z,11.22
2018-05-13T02:55:07.655Z,11.23
2018-05-13T02:56:17.677Z,11.25
2018-05-13T02:57:27.437Z,11.26
2018-05-13T02:58:37.494Z,11.26
2018-05-13T02:59:47.510Z,11.33
2018-05-13T03:03:29.865Z,11.31
2018-05-13T03:04:39.348Z,11.26
2018-05-13T03:05:48.558Z,11.25
2018-05-13T03:06:58.577Z,11.3
2018-05-13T03:08:08.084Z,11.23
2018-05-13T03:09:17.845Z,11.22
2018-05-13T03:10:27.594Z,11.23
2018-05-13T03:11:37.345Z,11.19
2018-05-13T03:12:47.367Z,11.22
2018-05-13T03:13:56.845Z,11.18
2018-05-13T03:15:06.058Z,11.27
2018-05-13T03:16:15.799Z,11.3
2018-05-13T03:17:25.553Z,11.26
2018-05-13T03:18:35.567Z,11.33
2018-05-13T03:19:45.573Z,11.23
2018-05-13T03:20:55.582Z,11.31
2018-05-13T03:22:05.590Z,11.3
2018-05-13T03:23:15.352Z,11.25
2018-05-13T03:24:25.371Z,11.2
2018-05-13T03:25:35.407Z,11.27
2018-05-13T03:26:45.466Z,11.22
2018-05-13T03:27:55.488Z,11.31
2018-05-13T03:29:05.503Z,11.31
2018-05-13T03:30:15.517Z,11.35
2018-05-13T03:31:25.533Z,11.34
2018-05-13T03:32:35.280Z,11.41
2018-05-13T03:33:45.376Z,11.35
2018-05-13T03:34:55.120Z,11.4
2018-05-13T03:36:04.872Z,11.43
2018-05-13T03:37:14.084Z,11.49
2018-05-13T03:38:23.573Z,11.52
2018-05-13T03:39:33.576Z,11.53
2018-05-13T03:40:43.585Z,11.45
2018-05-13T03:41:53.598Z,11.59
2018-05-13T03:43:03.347Z,11.62
2018-05-13T03:44:13.104Z,11.63
2018-05-13T03:45:23.116Z,11.62
2018-05-13T03:46:32.600Z,11.65
2018-05-13T03:47:42.337Z,11.65
2018-05-13T03:48:52.083Z,11.65
2018-05-13T03:50:02.098Z,11.65
2018-05-13T03:51:11.582Z,11.63
2018-05-13T03:52:21.065Z,11.77
2018-05-13T03:53:30.542Z,11.8
2018-05-13T03:54:39.758Z,11.76
2018-05-13T03:55:49.887Z,11.73
2018-05-13T03:56:59.900Z,11.81
2018-05-13T03:58:09.726Z,11.81
2018-05-13T03:59:19.196Z,11.81
2018-05-13T04:00:28.944Z,11.77
2018-05-13T04:01:38.423Z,11.81
2018-05-13T04:02:48.428Z,11.81
2018-05-13T04:03:58.171Z,11.81
2018-05-13T04:05:08.193Z,11.81
2018-05-13T04:06:18.198Z,11.85
2018-05-13T04:07:27.919Z,11.88
2018-05-13T04:08:38.047Z,11.81
2018-05-13T04:09:48.078Z,11.93
2018-05-13T04:10:58.089Z,11.88
2018-05-13T04:12:08.097Z,11.91
2018-05-13T04:13:17.837Z,11.96
2018-05-13T04:14:27.326Z,11.96
2018-05-13T04:15:37.068Z,11.99
2018-05-13T04:16:47.081Z,11.93
2018-05-13T04:17:56.823Z,11.88
2018-05-13T04:19:06.302Z,11.89
2018-05-13T04:20:16.045Z,11.77
2018-05-13T04:21:25.522Z,11.81
2018-05-13T04:22:35.269Z,11.86
2018-05-13T04:23:45.277Z,11.91
2018-05-13T04:24:55.394Z,11.93
2018-05-13T04:26:05.407Z,11.97
2018-05-13T04:27:14.617Z,11.96
2018-05-13T04:28:24.629Z,11.88
2018-05-13T04:29:34.387Z,11.86
2018-05-13T04:30:44.398Z,11.96
2018-05-13T04:31:53.873Z,11.91
2018-05-13T04:33:03.891Z,11.88
2018-05-13T04:34:13.639Z,11.86
2018-05-13T04:35:23.381Z,11.86
2018-05-13T04:36:33.135Z,11.93
2018-05-13T04:37:42.886Z,11.86
2018-05-13T04:38:52.635Z,11.89
2018-05-13T04:40:02.378Z,11.99
2018-05-13T04:41:12.132Z,12
2018-05-13T04:42:22.144Z,11.96
2018-05-13T04:43:32.155Z,12.12
2018-05-13T04:44:41.906Z,12.17
2018-05-13T04:45:51.653Z,12.15
2018-05-13T04:47:01.400Z,12.14
2018-05-13T04:48:11.148Z,12.26
2018-05-13T04:49:20.902Z,12.21
2018-05-13T04:50:30.646Z,12.36
2018-05-13T04:51:40.665Z,12.39
2018-05-13T04:52:50.677Z,12.47
2018-05-13T04:54:00.150Z,12.5
2018-05-13T04:55:09.629Z,12.62
2018-05-13T04:56:19.640Z,12.65
2018-05-13T04:57:29.657Z,12.87
2018-05-13T04:58:39.674Z,12.99
2018-05-13T04:59:49.428Z,13.05
2018-05-13T05:00:59.477Z,13.13
2018-05-13T05:02:09.225Z,13.2
2018-05-13T05:03:18.965Z,13.23
2018-05-13T05:04:28.747Z,13.28
2018-05-13T05:05:38.492Z,13.3
2018-05-13T05:06:48.244Z,13.36
2018-05-13T05:07:57.990Z,13.49
2018-05-13T05:09:07.481Z,13.57
2018-05-13T05:10:17.498Z,13.6
2018-05-13T05:11:27.558Z,13.73
2018-05-13T05:12:37.305Z,13.78
2018-05-13T05:13:47.053Z,13.71
2018-05-13T05:14:57.068Z,13.68
2018-05-13T05:16:06.819Z,13.45
2018-05-13T05:17:16.843Z,13.27
2018-05-13T05:18:26.058Z,13.16
2018-05-13T05:19:35.800Z,13.13
2018-05-13T05:20:45.811Z,13.13
2018-05-13T05:21:55.819Z,13.16
2018-05-13T05:23:05.564Z,13.16
2018-05-13T05:24:15.577Z,13.21
2018-05-13T05:25:25.593Z,13.17
2018-05-13T05:26:35.603Z,13.2
2018-05-13T05:27:45.401Z,13.16
2018-05-13T05:28:55.563Z,13.17
2018-05-13T05:30:05.039Z,13.13
2018-05-13T05:31:15.054Z,13.19
2018-05-13T05:32:25.068Z,13.2
2018-05-13T05:33:35.084Z,13.24
2018-05-13T05:34:44.833Z,13.27
2018-05-13T05:35:55.114Z,13.33
2018-05-13T05:37:05.128Z,13.21
2018-05-13T05:38:14.605Z,13.24
2018-05-13T05:39:24.092Z,13.12
2018-05-13T05:40:33.844Z,13.03
2018-05-13T05:41:43.863Z,13.03
2018-05-13T05:42:53.909Z,12.99
2018-05-13T05:44:03.919Z,12.94
2018-05-13T05:45:13.393Z,12.93
2018-05-13T05:46:23.138Z,12.99
2018-05-13T05:47:32.891Z,13.08
2018-05-13T05:48:42.982Z,13.03
2018-05-13T05:49:52.725Z,13.06
2018-05-13T05:51:01.951Z,13.12
2018-05-13T05:52:11.428Z,13.12
2018-05-13T05:53:21.439Z,13.11
2018-05-13T05:54:31.187Z,13.11
2018-05-13T05:55:41.025Z,13.13
2018-05-13T05:56:51.053Z,13.02
2018-05-13T05:58:01.077Z,13.05
2018-05-13T05:59:10.831Z,13.08
2018-05-13T06:00:20.577Z,13.05
2018-05-13T06:01:30.336Z,13.01
2018-05-13T06:02:40.102Z,13.01
2018-05-13T06:03:49.850Z,12.98
2018-05-13T06:04:59.869Z,13.01
2018-05-13T06:06:09.883Z,12.99
2018-05-13T06:07:19.896Z,12.99
2018-05-13T06:08:29.909Z,12.95
2018-05-13T06:09:39.996Z,13.08
2018-05-13T06:10:49.744Z,13.13
2018-05-13T06:11:59.491Z,13.17
2018-05-13T06:13:09.501Z,13.21
2018-05-13T06:14:19.244Z,13.28
2018-05-13T06:15:28.455Z,13.24
2018-05-13T06:16:38.470Z,13.28
2018-05-13T06:17:48.494Z,13.27
2018-05-13T06:18:58.508Z,13.31
2018-05-13T06:20:08.522Z,13.33
2018-05-13T06:21:18.634Z,13.33
2018-05-13T06:22:28.649Z,13.27
2018-05-13T06:23:38.402Z,13.28
2018-05-13T06:24:48.424Z,13.31
2018-05-13T06:25:58.431Z,13.4
2018-05-13T06:27:08.447Z,13.26
2018-05-13T06:28:18.199Z,13.37
2018-05-13T06:29:27.944Z,13.49
2018-05-13T06:30:37.696Z,13.54
2018-05-13T06:31:47.776Z,13.57
2018-05-13T06:32:57.952Z,13.62
2018-05-13T06:34:07.701Z,13.67
2018-05-13T06:35:17.713Z,13.76
2018-05-13T06:36:27.726Z,13.85
2018-05-13T06:37:37.476Z,13.82
2018-05-13T06:38:47.488Z,13.93
2018-05-13T06:39:57.502Z,13.98
2018-05-13T06:41:07.246Z,14.07
2018-05-13T06:42:17.261Z,14.08
2018-05-13T06:43:27.013Z,14.11
2018-05-13T06:44:37.028Z,14.11
2018-05-13T06:45:46.775Z,14.26
2018-05-13T06:46:56.523Z,14.33
2018-05-13T06:48:06.281Z,14.41
2018-05-13T06:49:16.025Z,14.37
2018-05-13T06:50:25.826Z,14.36
2018-05-13T06:51:35.031Z,14.41
2018-05-13T06:52:45.040Z,14.44
2018-05-13T06:53:54.792Z,14.52
2018-05-13T06:55:04.878Z,14.53
2018-05-13T06:56:14.629Z,14.4
2018-05-13T06:57:24.606Z,14.38
2018-05-13T06:58:34.478Z,14.43
2018-05-13T06:59:44.489Z,14.41
2018-05-13T07:00:54.236Z,14.48
2018-05-13T07:02:04.264Z,14.38
2018-05-13T07:03:14.287Z,14.56
2018-05-13T07:04:24.038Z,14.48
2018-05-13T07:05:33.780Z,14.45
2018-05-13T07:06:43.526Z,14.38
2018-05-13T07:07:53.269Z,14.41
2018-05-13T07:09:02.747Z,14.38
2018-05-13T07:10:12.229Z,14.37
2018-05-13T07:11:22.328Z,14.36
2018-05-13T07:12:32.359Z,14.18
2018-05-13T07:13:42.108Z,14.04
2018-05-13T07:14:52.130Z,14.05
2018-05-13T07:16:01.884Z,14.01
2018-05-13T07:17:11.387Z,13.82
2018-05-13T07:18:21.406Z,13.79
2018-05-13T07:19:31.449Z,13.8
2018-05-13T07:20:41.463Z,13.86
2018-05-13T07:21:51.550Z,13.8
2018-05-13T07:23:01.591Z,13.89
2018-05-13T07:24:10.805Z,13.83
2018-05-13T07:25:20.280Z,13.86
2018-05-13T07:26:30.305Z,13.97
2018-05-13T07:27:40.331Z,14
2018-05-13T07:28:50.082Z,13.93
2018-05-13T07:29:59.829Z,13.86
2018-05-13T07:31:08.504Z,13.86
2018-05-13T07:32:17.983Z,13.85
2018-05-13T07:33:27.732Z,13.87
2018-05-13T07:34:37.493Z,13.86
2018-05-13T07:35:47.234Z,13.93
2018-05-13T07:36:57.262Z,13.94
2018-05-13T07:38:07.278Z,14.01
2018-05-13T07:39:17.022Z,14.11
2018-05-13T07:40:27.034Z,14.08
2018-05-13T07:41:37.048Z,14.2
2018-05-13T07:42:47.061Z,14.2
2018-05-13T07:43:56.546Z,14.33
2018-05-13T07:45:06.293Z,14.41
2018-05-13T07:46:16.304Z,14.43
2018-05-13T07:47:26.394Z,14.38
2018-05-13T07:48:36.408Z,14.55
2018-05-13T07:49:45.885Z,14.53
2018-05-13T07:50:55.828Z,14.61
2018-05-13T07:52:05.728Z,14.58
2018-05-13T07:53:15.474Z,14.53
2018-05-13T07:54:25.223Z,14.63
2018-05-13T07:55:34.703Z,14.71
2018-05-13T07:56:44.461Z,14.73
2018-05-13T07:57:54.605Z,14.77
2018-05-13T07:59:04.821Z,14.73
2018-05-13T08:00:14.573Z,14.82
2018-05-13T08:01:24.593Z,14.85
2018-05-13T08:02:34.072Z,14.94
2018-05-13T08:03:43.826Z,14.96
2018-05-13T08:04:53.844Z,14.96
2018-05-13T08:06:03.600Z,15
2018-05-13T08:07:13.759Z,15.04
2018-05-13T08:08:23.789Z,14.99
2018-05-13T08:09:33.830Z,15.17
2018-05-13T08:10:43.582Z,15.18
2018-05-13T08:11:53.951Z,15.33
2018-05-13T08:13:03.965Z,15.35
2018-05-13T08:14:13.976Z,15.57
2018-05-13T08:15:23.733Z,15.48
2018-05-13T08:16:33.480Z,15.44
2018-05-13T08:17:43.495Z,15.63
2018-05-13T08:18:53.513Z,15.57
2018-05-13T08:20:03.532Z,15.57
2018-05-13T08:21:12.743Z,15.6
2018-05-13T08:22:22.487Z,15.66
2018-05-13T08:23:32.233Z,15.63
2018-05-13T08:24:42.249Z,15.75
2018-05-13T08:25:51.996Z,15.76
2018-05-13T08:27:02.010Z,15.76
2018-05-13T08:28:11.761Z,15.78
2018-05-13T08:29:21.782Z,15.94
2018-05-13T08:30:31.801Z,15.99
2018-05-13T08:31:41.897Z,16
2018-05-13T08:32:51.651Z,16.13
2018-05-13T08:34:01.134Z,16.22
2018-05-13T08:35:10.622Z,16.21
2018-05-13T08:36:20.368Z,16.18
2018-05-13T08:37:30.130Z,16
2018-05-13T08:38:40.158Z,15.96
2018-05-13T08:39:50.171Z,15.9
2018-05-13T08:41:00.200Z,15.78
2018-05-13T08:42:09.946Z,15.72
2018-05-13T08:43:19.695Z,15.7
2018-05-13T08:44:29.168Z,15.73
2018-05-13T08:45:38.917Z,15.63
2018-05-13T08:46:48.938Z,15.63
2018-05-13T08:47:58.424Z,15.59
2018-05-13T08:49:08.441Z,15.5
2018-05-13T08:50:18.187Z,15.5
2018-05-13T08:51:28.275Z,15.51
2018-05-13T08:52:38.023Z,15.66
2018-05-13T08:53:48.042Z,15.66
2018-05-13T08:54:57.789Z,15.59
2018-05-13T08:56:07.543Z,15.57
2018-05-13T08:57:17.298Z,15.75
2018-05-13T08:58:27.323Z,15.75
2018-05-13T08:59:37.252Z,15.81
2018-05-13T09:00:47.276Z,15.94
2018-05-13T09:01:57.311Z,15.96
2018-05-13T09:03:06.260Z,16.16
2018-05-13T09:04:16.006Z,16.16
2018-05-13T09:05:26.032Z,16.36
2018-05-13T09:06:35.785Z,16.43
2018-05-13T09:07:45.803Z,16.47
2018-05-13T09:08:55.837Z,16.5
2018-05-13T09:10:05.688Z,16.47
2018-05-13T09:11:15.705Z,16.44
2018-05-13T09:12:25.459Z,16.54
2018-05-13T09:13:35.477Z,16.74
2018-05-13T09:14:45.514Z,16.83
2018-05-13T09:15:55.542Z,16.84
2018-05-13T09:17:05.560Z,17.13
2018-05-13T09:18:15.328Z,17.05
2018-05-13T09:19:25.354Z,17.07
2018-05-13T09:20:35.524Z,17.17
2018-05-13T09:21:45.920Z,17.2
2018-05-13T09:22:55.953Z,17.34
2018-05-13T09:24:05.435Z,17.27
2018-05-13T09:25:14.922Z,17.22
2018-05-13T09:26:24.675Z,17.28
2018-05-13T09:27:34.215Z,17.23
2018-05-13T09:28:43.964Z,17.28
2018-05-13T09:29:53.982Z,17.5
2018-05-13T09:31:03.734Z,17.54
2018-05-13T09:32:13.783Z,17.63
2018-05-13T09:33:23.805Z,17.56
2018-05-13T09:34:33.567Z,17.66
2018-05-13T09:35:43.586Z,17.6
2018-05-13T09:36:53.068Z,17.73
2018-05-13T09:38:03.092Z,17.73
2018-05-13T09:39:12.892Z,17.79
2018-05-13T09:40:22.661Z,17.76
2018-05-13T09:41:32.146Z,17.76
2018-05-13T09:42:42.164Z,17.88
2018-05-13T09:43:51.910Z,17.94
2018-05-13T09:45:01.391Z,18.09
2018-05-13T09:46:11.140Z,18.19
2018-05-13T09:47:20.896Z,18.21
2018-05-13T09:48:30.916Z,18.06
2018-05-13T09:49:40.398Z,18.05
2018-05-13T09:50:49.883Z,18.19
2018-05-13T09:51:59.634Z,18.33
2018-05-13T09:53:09.385Z,18.45
2018-05-13T09:54:19.134Z,18.6
2018-05-13T09:55:28.887Z,18.66
2018-05-13T09:56:38.922Z,18.7
2018-05-13T09:57:49.026Z,18.82
2018-05-13T09:58:58.787Z,18.94
2018-05-13T10:00:08.539Z,19.05
2018-05-13T10:01:18.571Z,19
2018-05-13T10:02:28.704Z,19.2
2018-05-13T10:03:38.472Z,19.32
2018-05-13T10:04:48.487Z,19.39
2018-05-13T10:05:58.501Z,19.62
2018-05-13T10:07:07.982Z,19.75
2018-05-13T10:08:17.737Z,19.9
2018-05-13T10:09:27.550Z,20.11
2018-05-13T10:10:37.413Z,20.3
2018-05-13T10:11:46.901Z,20.4
2018-05-13T10:12:56.656Z,20.64
2018-05-13T10:14:06.408Z,20.8
2018-05-13T10:15:16.160Z,21.05
2018-05-13T10:16:25.910Z,21.32
2018-05-13T10:17:35.960Z,21.54
2018-05-13T10:18:45.456Z,21.75
2018-05-13T10:19:54.945Z,21.91
2018-05-13T10:21:04.697Z,22.16
2018-05-13T10:22:14.713Z,22.33
2018-05-13T10:23:24.476Z,22.59
2018-05-13T10:24:34.504Z,22.74
2018-05-13T10:25:44.266Z,22.99
2018-05-13T10:26:54.289Z,23.16
2018-05-13T10:28:04.386Z,23.36
2018-05-13T10:29:13.884Z,23.49
2018-05-13T10:30:23.902Z,23.63
2018-05-13T10:31:33.391Z,23.88
2018-05-13T10:32:43.149Z,23.95
2018-05-13T10:33:53.174Z,24.07
2018-05-13T10:35:02.663Z,24.1
2018-05-13T10:36:12.683Z,24.26
2018-05-13T10:37:22.467Z,24.25
2018-05-13T10:38:32.483Z,24.38
2018-05-13T10:39:41.440Z,24.4
2018-05-13T10:40:51.199Z,24.46
2018-05-13T10:42:00.956Z,24.46
2018-05-13T10:43:10.439Z,24.43
2018-05-13T10:44:20.463Z,24.43
2018-05-13T10:45:30.564Z,24.5
2018-05-13T10:46:40.597Z,24.5
2018-05-13T10:47:50.626Z,24.5
2018-05-13T10:49:00.652Z,24.48
2018-05-13T10:50:10.147Z,24.48
2018-05-13T10:51:20.166Z,24.47
2018-05-13T10:52:29.922Z,24.44
2018-05-13T10:53:39.949Z,24.46
2018-05-13T10:54:49.967Z,24.48
2018-05-13T10:55:59.716Z,24.4
2018-05-13T10:57:09.201Z,24.47
2018-05-13T10:58:18.959Z,24.37
2018-05-13T10:59:28.449Z,24.36
2018-05-13T11:00:38.203Z,24.34
2018-05-13T11:01:48.221Z,24.21
2018-05-13T11:02:57.981Z,24.26
2018-05-13T11:04:07.730Z,24.25
2018-05-13T11:05:17.761Z,24.26
2018-05-13T11:06:27.828Z,24.19
2018-05-13T11:07:37.847Z,24.24
2018-05-13T11:08:47.606Z,24.43
2018-05-13T11:09:57.366Z,24.43
2018-05-13T11:11:07.396Z,24.56
2018-05-13T11:12:16.879Z,24.58
2018-05-13T11:13:26.636Z,24.47
2018-05-13T11:14:36.659Z,24.44
2018-05-13T11:15:46.683Z,24.47
2018-05-13T11:16:56.700Z,24.61
2018-05-13T11:18:06.191Z,24.71
2018-05-13T11:19:15.408Z,24.68
2018-05-13T11:20:24.907Z,24.71
2018-05-13T11:21:34.135Z,24.89
2018-05-13T11:22:44.161Z,24.97
2018-05-13T11:23:54.191Z,25.04
2018-05-13T11:25:04.221Z,25.11
2018-05-13T11:26:13.708Z,25.16
2018-05-13T11:27:23.465Z,25.41
2018-05-13T11:28:33.488Z,25.66
2018-05-13T11:29:43.508Z,25.89
2018-05-13T11:30:53.263Z,25.98
2018-05-13T11:32:03.018Z,26.11
2018-05-13T11:33:12.771Z,26.29
2018-05-13T11:34:22.526Z,26.3
2018-05-13T11:35:32.379Z,26.34
2018-05-13T11:36:42.413Z,26.42
2018-05-13T11:37:52.447Z,26.27
2018-05-13T11:39:02.199Z,26.1
2018-05-13T11:40:11.416Z,26.06
2018-05-13T11:41:21.174Z,26.08
2018-05-13T11:42:30.933Z,26.31
2018-05-13T11:43:40.957Z,26.56
2018-05-13T11:44:51.073Z,26.83
2018-05-13T11:46:01.094Z,27.4
2018-05-13T11:47:10.585Z,27.86
2018-05-13T11:48:20.610Z,28.46
2018-05-13T11:49:30.099Z,28.75
2018-05-13T11:50:40.124Z,29.31
2018-05-13T11:51:49.889Z,29.67
2018-05-13T11:52:59.917Z,30.27
2018-05-13T11:54:09.673Z,30.73
2018-05-13T11:55:19.443Z,31.05
2018-05-13T11:56:29.370Z,31.41
2018-05-13T11:57:39.639Z,31.81
2018-05-13T11:58:49.406Z,31.87
2018-05-13T11:59:59.162Z,32.31
2018-05-13T12:01:08.934Z,32.35
2018-05-13T12:02:18.642Z,32.29
2018-05-13T12:03:28.580Z,32.48
2018-05-13T12:04:38.341Z,32.16
2018-05-13T12:05:47.832Z,32.35
2018-05-13T12:06:57.591Z,32.35
2018-05-13T12:08:07.357Z,32.37
2018-05-13T12:09:17.381Z,32.31
2018-05-13T12:10:26.874Z,32.07
2018-05-13T12:11:36.907Z,31.67
2018-05-13T12:12:46.402Z,31.23
2018-05-13T12:13:56.442Z,30.89
2018-05-13T12:15:06.325Z,30.38
2018-05-13T12:16:16.256Z,30.01
2018-05-13T12:17:26.012Z,29.68
2018-05-13T12:18:36.044Z,29.4
2018-05-13T12:19:46.074Z,29.07
2018-05-13T12:20:55.887Z,28.4
2018-05-13T12:22:06.056Z,28
2018-05-13T12:23:16.079Z,27.66
2018-05-13T12:24:25.838Z,27.33
2018-05-13T12:25:35.617Z,27.15
2018-05-13T12:26:45.650Z,26.85
2018-05-13T12:27:55.676Z,26.53
2018-05-13T12:29:06.025Z,26.3
2018-05-13T12:30:15.520Z,26.22
2018-05-13T12:31:25.544Z,26.1
2018-05-13T12:32:35.295Z,25.99
2018-05-13T12:33:44.784Z,25.96
2018-05-13T12:34:54.907Z,25.91
2018-05-13T12:36:04.932Z,25.83
2018-05-13T12:37:14.428Z,25.92
2018-05-13T12:38:24.185Z,25.89
2018-05-13T12:39:33.943Z,25.76
2018-05-13T12:40:43.699Z,25.77
2018-05-13T12:41:53.730Z,25.71
2018-05-13T12:43:03.499Z,25.62
2018-05-13T12:44:13.262Z,25.22
2018-05-13T12:45:23.030Z,25.25
2018-05-13T12:46:32.781Z,25.25
2018-05-13T12:47:42.277Z,25.25
2018-05-13T12:48:52.304Z,25.12
2018-05-13T12:50:02.381Z,24.96
2018-05-13T12:51:12.483Z,25
2018-05-13T12:52:22.243Z,24.92
2018-05-13T12:53:32.005Z,24.82
2018-05-13T12:54:41.767Z,24.65
2018-05-13T12:55:51.785Z,24.62
2018-05-13T12:57:01.545Z,24.53
2018-05-13T12:58:11.304Z,24.78
2018-05-13T12:59:21.328Z,24.88
2018-05-13T13:00:31.355Z,24.99
2018-05-13T13:01:40.580Z,25.07
2018-05-13T13:02:50.652Z,25.43
2018-05-13T13:04:00.222Z,25.74
2018-05-13T13:05:09.983Z,25.8
2018-05-13T13:06:20.116Z,25.92
2018-05-13T13:07:30.157Z,26.68
2018-05-13T13:08:40.229Z,26.74
2018-05-13T13:09:50.259Z,26.92
2018-05-13T13:11:00.284Z,27.35
2018-05-13T13:12:09.778Z,27.45
2018-05-13T13:13:19.804Z,27.52
2018-05-13T13:14:29.029Z,27.55
2018-05-13T13:15:39.062Z,27.45
2018-05-13T13:16:48.553Z,27.35
2018-05-13T13:17:58.313Z,27.29
2018-05-13T13:19:08.070Z,27.33
2018-05-13T13:20:18.103Z,27.13
2018-05-13T13:21:28.142Z,26.83
2018-05-13T13:22:37.898Z,26.63
2018-05-13T13:23:47.935Z,26.19
2018-05-13T13:24:57.155Z,26.01
2018-05-13T13:26:07.015Z,25.93
2018-05-13T13:27:17.050Z,25.76
2018-05-13T13:28:27.144Z,25.46
2018-05-13T13:29:36.909Z,25.4
2018-05-13T13:30:46.937Z,25.15
2018-05-13T13:31:56.857Z,25.11
2018-05-13T13:33:06.612Z,25.21
2018-05-13T13:34:16.112Z,25
2018-05-13T13:35:25.604Z,24.92
2018-05-13T13:36:35.593Z,24.77
2018-05-13T13:37:45.804Z,24.59
2018-05-13T13:38:55.305Z,24.69
2018-05-13T13:40:05.067Z,24.58
2018-05-13T13:41:15.094Z,24.89
2018-05-13T13:42:25.135Z,25.49
2018-05-13T13:43:34.621Z,26.31
2018-05-13T13:44:44.391Z,27.01
2018-05-13T13:45:54.418Z,27.75
2018-05-13T13:47:04.177Z,28.45
2018-05-13T13:48:13.931Z,29.02
2018-05-13T13:49:23.955Z,29.73
2018-05-13T13:50:33.711Z,30.16
2018-05-13T13:51:43.464Z,30.83
2018-05-13T13:52:53.223Z,31.5
2018-05-13T13:54:02.724Z,31.97
2018-05-13T13:55:12.495Z,32.38
2018-05-13T13:56:22.260Z,32.95
2018-05-13T13:57:31.749Z,33.03
2018-05-13T13:58:41.788Z,33.54
2018-05-13T13:59:51.559Z,34.1
2018-05-13T14:01:01.595Z,34.38
2018-05-13T14:02:11.088Z,34.78
2018-05-13T14:03:20.588Z,34.73
2018-05-13T14:04:30.616Z,34.83
2018-05-13T14:05:40.378Z,34.53
2018-05-13T14:06:50.509Z,34.43
2018-05-13T14:08:00.316Z,34.37
2018-05-13T14:09:10.084Z,34.66
2018-05-13T14:10:20.116Z,35.05
2018-05-13T14:11:30.150Z,35.35
2018-05-13T14:12:39.377Z,35.64
2018-05-13T14:13:49.406Z,36.06
2018-05-13T14:14:59.169Z,36.43
2018-05-13T14:16:08.665Z,36.48
2018-05-13T14:17:18.695Z,36.55
2018-05-13T14:18:28.197Z,36.94
2018-05-13T14:19:38.231Z,37.14
2018-05-13T14:20:48.267Z,37.33
2018-05-13T14:21:58.045Z,37.64
2018-05-13T14:23:07.811Z,37.9
2018-05-13T14:24:17.305Z,37.92
2018-05-13T14:25:27.343Z,38.05
2018-05-13T14:26:37.114Z,38.36
2018-05-13T14:27:47.144Z,38.72
2018-05-13T14:28:56.922Z,39.04
2018-05-13T14:30:06.688Z,39.03
2018-05-13T14:31:16.466Z,39.05
2018-05-13T14:32:25.696Z,39.05
2018-05-13T14:33:35.747Z,38.7
2018-05-13T14:34:44.981Z,38.34
2018-05-13T14:35:54.483Z,37.95
2018-05-13T14:37:03.996Z,37.43
2018-05-13T14:38:14.170Z,36.72
2018-05-13T14:39:24.304Z,36.09
2018-05-13T14:40:34.074Z,35.81
2018-05-13T14:41:44.457Z,35.56
2018-05-13T14:42:54.219Z,35.13
2018-05-13T14:44:03.980Z,34.43
2018-05-13T14:45:13.607Z,33.69
2018-05-13T14:46:24.005Z,33.29
2018-05-13T14:47:34.053Z,33.01
2018-05-13T14:48:43.819Z,32.88
2018-05-13T14:49:53.586Z,32.93
2018-05-13T14:51:03.346Z,33.19
2018-05-13T14:52:12.849Z,33.4
2018-05-13T14:53:22.344Z,33.67
2018-05-13T14:54:32.109Z,33.75
2018-05-13T14:55:42.137Z,33.7
2018-05-13T14:56:51.903Z,34.13
2018-05-13T14:58:01.940Z,34.07
2018-05-13T14:59:11.524Z,34.04
2018-05-13T15:00:21.283Z,34.28
2018-05-13T15:01:31.311Z,34.56
2018-05-13T15:02:41.340Z,34.93
2018-05-13T15:03:51.185Z,35.12
2018-05-13T15:05:01.452Z,35.56